createdAt,value
2017-05-06T00:01:26.528Z,30.78
2017-05-06T00:03:54.473Z,27.26
2017-05-06T00:06:22.429Z,31.16
2017-05-06T00:08:51.412Z,29.62
2017-05-06T00:11:19.733Z,32.32
2017-05-06T00:13:48.629Z,31.34
2017-05-06T00:16:17.741Z,33.38
2017-05-06T00:18:46.058Z,31.34
2017-05-06T00:21:15.118Z,30.14
2017-05-06T00:23:43.505Z,31.40
2017-05-06T00:26:11.451Z,30.18
2017-05-06T00:28:39.393Z,29.18
2017-05-06T00:31:08.093Z,33.00
2017-05-06T00:33:36.431Z,29.64
2017-05-06T00:36:05.356Z,30.30
2017-05-06T00:38:33.913Z,33.56
2017-05-06T00:41:02.844Z,31.44
2017-05-06T00:43:31.168Z,32.20
2017-05-06T00:45:59.545Z,30.72
2017-05-06T00:48:28.605Z,27.92
2017-05-06T00:50:56.917Z,31.90
2017-05-06T00:53:26.052Z,30.00
2017-05-06T00:55:54.953Z,31.94
2017-05-06T00:58:23.639Z,30.64
2017-05-06T01:00:52.009Z,30.32
2017-05-06T01:03:20.325Z,31.18
2017-05-06T01:05:48.277Z,31.80
2017-05-06T01:08:17.386Z,30.02
2017-05-06T01:10:45.701Z,30.36
2017-05-06T01:13:13.641Z,29.60
2017-05-06T01:15:41.644Z,30.78
2017-05-06T01:18:10.324Z,29.02
2017-05-06T01:20:38.656Z,30.58
2017-05-06T01:23:07.937Z,29.96
2017-05-06T01:25:36.854Z,32.10
2017-05-06T01:28:05.190Z,31.42
2017-05-06T01:30:33.568Z,30.70
2017-05-06T01:33:02.488Z,32.62
2017-05-06T01:35:31.173Z,30.14
2017-05-06T01:37:59.838Z,31.78
2017-05-06T01:40:28.521Z,32.38
2017-05-06T01:42:56.837Z,29.88
2017-05-06T01:45:25.024Z,32.00
2017-05-06T01:47:52.977Z,30.24
2017-05-06T01:50:21.888Z,30.12
2017-05-06T01:52:50.865Z,31.18
2017-05-06T01:55:19.768Z,31.70
2017-05-06T01:57:48.084Z,30.24
2017-05-06T02:00:16.456Z,30.80
2017-05-06T02:02:44.414Z,31.84
2017-05-06T02:05:12.729Z,33.16
2017-05-06T02:07:41.373Z,30.36
2017-05-06T02:10:10.425Z,31.42
2017-05-06T02:12:38.745Z,28.96
2017-05-06T02:15:07.022Z,30.56
2017-05-06T02:17:34.977Z,28.94
2017-05-06T02:20:03.318Z,32.38
2017-05-06T02:22:31.821Z,30.54
2017-05-06T02:24:59.769Z,28.82
2017-05-06T02:27:28.085Z,29.38
2017-05-06T02:29:57.040Z,30.68
2017-05-06T02:32:24.989Z,30.24
2017-05-06T02:34:53.889Z,30.38
2017-05-06T02:37:22.269Z,30.22
2017-05-06T02:39:51.193Z,29.96
2017-05-06T02:42:19.513Z,30.74
2017-05-06T02:44:47.880Z,28.24
2017-05-06T02:47:15.821Z,28.92
2017-05-06T02:49:44.137Z,32.80
2017-05-06T02:52:12.513Z,30.94
2017-05-06T02:54:40.457Z,29.00
2017-05-06T02:57:08.781Z,30.68
2017-05-06T02:59:37.879Z,27.94
2017-05-06T03:02:06.577Z,29.82
2017-05-06T03:04:35.501Z,30.92
2017-05-06T03:07:04.193Z,32.83
2017-05-06T03:09:32.901Z,27.68
2017-05-06T03:12:00.853Z,29.22
2017-05-06T03:14:28.852Z,30.00
2017-05-06T03:16:57.533Z,27.92
2017-05-06T03:19:26.432Z,31.12
2017-05-06T03:21:55.389Z,28.58
2017-05-06T03:24:23.337Z,29.22
2017-05-06T03:26:52.402Z,30.16
2017-05-06T03:29:20.773Z,27.46
2017-05-06T03:31:48.717Z,27.56
2017-05-06T03:34:17.030Z,29.74
2017-05-06T03:36:45.988Z,28.28
2017-05-06T03:39:14.673Z,27.70
2017-05-06T03:41:43.017Z,28.54
2017-05-06T03:44:11.005Z,27.54
2017-05-06T03:46:39.317Z,26.40
2017-05-06T03:49:08.392Z,26.95
2017-05-06T03:51:37.368Z,26.98
2017-05-06T03:54:06.297Z,26.50
2017-05-06T03:56:35.005Z,25.18
2017-05-06T03:59:03.034Z,26.24
2017-05-06T04:01:30.981Z,27.96
2017-05-06T04:03:58.921Z,27.50
2017-05-06T04:06:27.301Z,28.57
2017-05-06T04:08:55.257Z,26.80
2017-05-06T04:11:23.581Z,27.48
2017-05-06T04:13:51.977Z,28.38
2017-05-06T04:16:20.301Z,29.58
2017-05-06T04:18:48.246Z,28.22
2017-05-06T04:21:17.212Z,27.86
2017-05-06T04:23:46.120Z,26.86
2017-05-06T04:26:14.069Z,25.33
2017-05-06T04:28:42.632Z,26.92
2017-05-06T04:31:10.585Z,27.80
2017-05-06T04:33:38.545Z,26.40
2017-05-06T04:36:06.562Z,25.37
2017-05-06T04:38:34.914Z,25.03
2017-05-06T04:41:03.859Z,26.88
2017-05-06T04:43:32.993Z,26.14
2017-05-06T04:46:00.936Z,26.26
2017-05-06T04:48:29.257Z,25.65
2017-05-06T04:50:57.262Z,24.82
2017-05-06T04:53:25.577Z,25.92
2017-05-06T04:55:53.544Z,26.94
2017-05-06T04:58:21.949Z,29.93
2017-05-06T05:00:50.272Z,27.44
2017-05-06T05:03:19.178Z,31.22
2017-05-06T05:05:48.180Z,29.60
2017-05-06T05:08:16.125Z,32.10
2017-05-06T05:10:44.073Z,28.43
2017-05-06T05:13:12.436Z,30.52
2017-05-06T05:15:40.385Z,29.58
2017-05-06T05:18:08.339Z,31.22
2017-05-06T05:20:37.725Z,29.23
2017-05-06T05:23:06.807Z,29.02
2017-05-06T05:25:34.777Z,29.68
2017-05-06T05:28:03.538Z,29.28
2017-05-06T05:30:31.485Z,28.44
2017-05-06T05:32:59.424Z,31.06
2017-05-06T05:35:28.165Z,30.68
2017-05-06T05:37:56.481Z,27.68
2017-05-06T05:40:25.384Z,27.04
2017-05-06T05:42:54.133Z,29.14
2017-05-06T05:45:23.040Z,29.02
2017-05-06T05:47:51.956Z,27.86
2017-05-06T05:50:20.926Z,31.68
2017-05-06T05:52:49.237Z,28.68
2017-05-06T05:55:18.293Z,27.30
2017-05-06T05:57:46.286Z,29.06
2017-05-06T06:00:14.229Z,28.60
2017-05-06T06:02:42.545Z,31.12
2017-05-06T06:05:11.281Z,30.92
2017-05-06T06:07:39.593Z,30.66
2017-05-06T06:10:07.925Z,26.28
2017-05-06T06:12:37.064Z,26.46
2017-05-06T06:15:05.025Z,26.88
2017-05-06T06:17:33.357Z,26.90
2017-05-06T06:20:01.717Z,25.98
2017-05-06T06:22:30.032Z,26.86
2017-05-06T06:24:57.977Z,27.54
2017-05-06T06:27:27.196Z,25.96
2017-05-06T06:29:55.512Z,24.66
2017-05-06T06:32:26.769Z,24.74
2017-05-06T06:34:55.138Z,23.52
2017-05-06T06:37:23.837Z,24.52
2017-05-06T06:39:52.162Z,21.12
2017-05-06T06:42:20.163Z,21.44
2017-05-06T06:44:48.480Z,21.34
2017-05-06T06:47:16.433Z,23.14
2017-05-06T06:49:44.433Z,22.44
2017-05-06T06:52:12.754Z,21.00
2017-05-06T06:54:40.701Z,22.82
2017-05-06T06:57:09.081Z,22.68
2017-05-06T06:59:37.407Z,23.22
2017-05-06T07:02:05.737Z,21.54
2017-05-06T07:04:34.126Z,24.18
2017-05-06T07:07:02.078Z,21.92
2017-05-06T07:09:30.984Z,19.76
2017-05-06T07:11:59.985Z,20.96
2017-05-06T07:14:28.674Z,17.76
2017-05-06T07:16:56.992Z,15.56
2017-05-06T07:19:26.252Z,17.20
2017-05-06T07:21:54.206Z,17.64
2017-05-06T07:24:22.154Z,17.16
2017-05-06T07:26:51.269Z,17.02
2017-05-06T07:29:20.325Z,13.46
2017-05-06T07:31:48.266Z,14.00
2017-05-06T07:34:17.489Z,13.36
2017-05-06T07:36:45.805Z,11.82
2017-05-06T07:39:14.705Z,12.60
2017-05-06T07:41:43.441Z,12.76
2017-05-06T07:44:11.385Z,12.56
2017-05-06T07:46:39.697Z,11.82
2017-05-06T07:49:08.064Z,12.64
2017-05-06T07:51:36.986Z,11.40
2017-05-06T07:54:05.309Z,11.26
2017-05-06T07:56:33.982Z,12.86
2017-05-06T07:59:03.049Z,11.48
2017-05-06T08:01:31.736Z,11.72
2017-05-06T08:04:00.106Z,11.18
2017-05-06T08:06:28.048Z,11.96
2017-05-06T08:08:55.989Z,14.48
2017-05-06T08:11:24.361Z,11.54
2017-05-06T08:13:52.317Z,10.96
2017-05-06T08:16:20.632Z,9.58
2017-05-06T08:18:48.625Z,10.86
2017-05-06T08:24:11.385Z,11.20
2017-05-06T08:26:39.329Z,9.14
2017-05-06T08:29:07.646Z,9.94
2017-05-06T08:31:36.611Z,10.80
2017-05-06T08:34:04.947Z,10.38
2017-05-06T08:36:33.282Z,9.74
2017-05-06T08:39:01.665Z,11.74
2017-05-06T08:41:29.609Z,10.86
2017-05-06T08:43:57.552Z,10.10
2017-05-06T08:46:27.021Z,10.86
2017-05-06T08:48:56.065Z,8.80
2017-05-06T08:51:24.022Z,10.12
2017-05-06T08:53:52.768Z,9.28
2017-05-06T08:56:21.086Z,10.78
2017-05-06T08:58:49.984Z,9.32
2017-05-06T09:01:18.721Z,9.92
2017-05-06T09:03:47.037Z,9.28
2017-05-06T09:06:15.353Z,10.12
2017-05-06T09:08:43.353Z,10.28
2017-05-06T09:11:11.662Z,9.42
2017-05-06T09:13:39.973Z,8.90
2017-05-06T09:16:08.212Z,10.54
2017-05-06T09:18:36.179Z,9.70
2017-05-06T09:21:04.505Z,10.66
2017-05-06T09:23:33.621Z,9.70
2017-05-06T09:26:07.692Z,8.88
2017-05-06T09:28:35.697Z,9.24
2017-05-06T09:31:04.012Z,8.88
2017-05-06T09:33:31.953Z,9.20
2017-05-06T09:35:59.949Z,8.46
2017-05-06T09:38:28.537Z,9.44
2017-05-06T09:40:56.477Z,9.48
2017-05-06T09:43:25.424Z,9.22
2017-05-06T09:45:54.317Z,9.90
2017-05-06T09:48:23.012Z,9.48
2017-05-06T09:50:51.385Z,10.60
2017-05-06T09:53:19.706Z,10.28
2017-05-06T09:55:47.652Z,9.60
2017-05-06T09:58:16.940Z,10.10
2017-05-06T10:00:45.252Z,10.56
2017-05-06T10:03:13.628Z,10.44
2017-05-06T10:05:41.986Z,9.72
2017-05-06T10:08:10.300Z,10.38
2017-05-06T10:10:39.200Z,9.14
2017-05-06T10:13:07.578Z,9.20
2017-05-06T10:15:35.909Z,10.22
2017-05-06T10:18:03.863Z,9.80
2017-05-06T10:20:33.549Z,8.70
2017-05-06T10:23:02.235Z,8.42
2017-05-06T10:25:31.289Z,8.62
2017-05-06T10:28:00.572Z,9.88
2017-05-06T10:30:29.616Z,8.44
2017-05-06T10:32:57.925Z,7.64
2017-05-06T10:35:26.661Z,9.20
2017-05-06T10:37:54.969Z,8.38
2017-05-06T10:40:22.925Z,7.88
2017-05-06T10:42:50.952Z,8.92
2017-05-06T10:45:19.269Z,8.78
2017-05-06T10:47:47.945Z,8.48
2017-05-06T10:50:16.645Z,8.00
2017-05-06T10:52:45.329Z,9.22
2017-05-06T10:55:14.377Z,8.24
2017-05-06T10:57:43.697Z,8.18
2017-05-06T11:00:11.633Z,7.46
2017-05-06T11:02:40.680Z,7.64
2017-05-06T11:05:09.051Z,8.22
2017-05-06T11:07:37.382Z,8.74
2017-05-06T11:10:06.289Z,8.33
2017-05-06T11:12:34.593Z,8.86
2017-05-06T11:15:03.664Z,9.22
2017-05-06T11:17:32.724Z,8.98
2017-05-06T11:20:00.724Z,9.02
2017-05-06T11:22:28.665Z,8.74
2017-05-06T11:24:56.973Z,8.40
2017-05-06T11:27:25.711Z,8.10
2017-05-06T11:29:54.608Z,7.38
2017-05-06T11:32:23.511Z,7.74
2017-05-06T11:34:52.612Z,8.10
2017-05-06T11:37:21.294Z,7.22
2017-05-06T11:39:50.344Z,8.34
2017-05-06T11:42:19.040Z,8.32
2017-05-06T11:44:48.089Z,8.46
2017-05-06T11:47:16.769Z,9.28
2017-05-06T11:49:44.762Z,6.74
2017-05-06T11:52:12.701Z,7.62
2017-05-06T11:54:41.593Z,7.48
2017-05-06T11:57:10.537Z,7.42
2017-05-06T11:59:38.490Z,6.12
2017-05-06T12:02:06.809Z,7.16
2017-05-06T12:04:35.652Z,8.42
2017-05-06T12:07:03.990Z,7.74
2017-05-06T12:09:33.060Z,8.22
2017-05-06T12:12:02.906Z,7.60
2017-05-06T12:14:31.220Z,10.16
2017-05-06T12:16:59.157Z,6.98
2017-05-06T12:19:27.869Z,7.26
2017-05-06T12:21:56.549Z,8.60
2017-05-06T12:24:25.441Z,6.58
2017-05-06T12:26:53.778Z,6.92
2017-05-06T12:29:22.818Z,6.62
2017-05-06T12:31:51.149Z,6.76
2017-05-06T12:34:20.082Z,8.20
2017-05-06T12:36:48.747Z,8.10
2017-05-06T12:39:17.658Z,8.80
2017-05-06T12:41:46.454Z,8.22
2017-05-06T12:44:15.325Z,6.92
2017-05-06T12:46:43.610Z,8.82
2017-05-06T12:49:12.686Z,8.76
2017-05-06T12:51:41.430Z,9.00
2017-05-06T12:54:09.718Z,9.12
2017-05-06T12:56:38.662Z,9.98
2017-05-06T12:59:07.710Z,9.46
2017-05-06T13:01:36.601Z,9.14
2017-05-06T13:04:05.326Z,10.06
2017-05-06T13:06:33.634Z,9.48
2017-05-06T13:09:01.575Z,10.22
2017-05-06T13:11:30.689Z,9.36
2017-05-06T13:13:58.979Z,8.52
2017-05-06T13:16:27.273Z,7.98
2017-05-06T13:18:56.197Z,9.82
2017-05-06T13:21:24.119Z,9.62
2017-05-06T13:23:52.043Z,8.96
2017-05-06T13:26:20.386Z,9.48
2017-05-06T13:28:49.270Z,10.58
2017-05-06T13:31:18.142Z,9.36
2017-05-06T13:33:46.923Z,10.48
2017-05-06T13:36:15.587Z,10.38
2017-05-06T13:38:43.874Z,7.38
2017-05-06T13:41:11.790Z,8.70
2017-05-06T13:43:40.665Z,9.06
2017-05-06T13:46:09.335Z,9.26
2017-05-06T13:48:37.638Z,10.14
2017-05-06T13:51:05.909Z,8.68
2017-05-06T13:53:33.842Z,11.92
2017-05-06T13:56:02.164Z,10.04
2017-05-06T13:58:30.478Z,9.26
2017-05-06T14:04:08.116Z,9.88
2017-05-06T14:06:37.175Z,10.42
2017-05-06T14:09:05.514Z,12.32
2017-05-06T14:11:33.456Z,11.96
2017-05-06T14:14:02.400Z,10.94
2017-05-06T14:16:30.707Z,10.90
2017-05-06T14:18:59.586Z,10.44
2017-05-06T14:21:28.518Z,10.90
2017-05-06T14:23:56.818Z,12.52
2017-05-06T14:26:25.850Z,10.38
2017-05-06T14:28:54.652Z,8.32
2017-05-06T14:31:23.340Z,10.26
2017-05-06T14:33:52.817Z,9.74
2017-05-06T14:36:22.221Z,10.08
2017-05-06T14:38:50.146Z,11.22
2017-05-06T14:41:18.439Z,11.86
2017-05-06T14:43:46.782Z,9.14
2017-05-06T14:46:15.656Z,9.54
2017-05-06T14:48:43.958Z,10.32
2017-05-06T14:51:12.310Z,12.22
2017-05-06T14:53:41.197Z,10.98
2017-05-06T14:56:10.241Z,11.38
2017-05-06T14:58:39.315Z,12.16
2017-05-06T15:01:08.210Z,11.72
2017-05-06T15:03:37.098Z,12.62
2017-05-06T15:06:05.081Z,12.38
2017-05-06T15:08:33.011Z,9.22
2017-05-06T15:11:01.901Z,12.66
2017-05-06T15:13:30.247Z,10.94
2017-05-06T15:15:59.138Z,12.28
2017-05-06T15:18:28.009Z,11.78
2017-05-06T15:20:56.545Z,11.46
2017-05-06T15:23:24.468Z,11.56
2017-05-06T15:25:53.366Z,11.10
2017-05-06T15:28:22.669Z,9.50
2017-05-06T15:30:51.566Z,10.84
2017-05-06T15:33:19.882Z,9.56
2017-05-06T15:35:49.060Z,10.90
2017-05-06T15:38:17.943Z,12.54
2017-05-06T15:40:46.239Z,13.20
2017-05-06T15:43:15.166Z,11.78
2017-05-06T15:45:43.467Z,10.42
2017-05-06T15:48:11.393Z,9.32
2017-05-06T15:50:39.735Z,10.46
2017-05-06T15:53:08.054Z,10.30
2017-05-06T15:55:36.379Z,11.44
2017-05-06T15:58:04.749Z,12.62
2017-05-06T16:00:33.059Z,13.12
2017-05-06T16:03:02.098Z,9.50
2017-05-06T16:05:30.454Z,11.04
2017-05-06T16:07:58.390Z,12.58
2017-05-06T16:10:26.690Z,11.40
2017-05-06T16:12:55.778Z,10.54
2017-05-06T16:15:24.095Z,12.32
2017-05-06T16:17:52.408Z,11.26
2017-05-06T16:20:21.616Z,11.02
2017-05-06T16:22:50.291Z,12.38
2017-05-06T16:25:18.594Z,11.92
2017-05-06T16:27:46.938Z,12.86
2017-05-06T16:30:15.239Z,13.02
2017-05-06T16:32:43.538Z,14.36
2017-05-06T16:35:12.729Z,11.38
2017-05-06T16:37:41.034Z,12.60
2017-05-06T16:40:10.080Z,13.38
2017-05-06T16:42:38.683Z,13.84
2017-05-06T16:45:07.745Z,13.12
2017-05-06T16:47:36.071Z,13.28
2017-05-06T16:50:04.442Z,11.84
2017-05-06T16:52:32.777Z,12.84
2017-05-06T16:55:00.714Z,10.34
2017-05-06T16:57:29.063Z,13.30
2017-05-06T16:59:58.108Z,10.94
2017-05-06T17:02:26.778Z,12.20
2017-05-06T17:04:55.718Z,13.38
2017-05-06T17:07:24.611Z,13.86
2017-05-06T17:09:52.554Z,11.52
2017-05-06T17:12:20.542Z,11.64
2017-05-06T17:14:48.483Z,11.94
2017-05-06T17:17:16.792Z,12.22
2017-05-06T17:19:45.871Z,11.38
2017-05-06T17:22:14.923Z,11.30
2017-05-06T17:24:43.595Z,10.12
2017-05-06T17:27:12.282Z,10.18
2017-05-06T17:29:40.213Z,10.88
2017-05-06T17:32:09.110Z,11.58
2017-05-06T17:34:38.092Z,12.00
2017-05-06T17:37:06.775Z,13.06
2017-05-06T17:39:35.887Z,10.18
2017-05-06T17:42:03.915Z,10.54
2017-05-06T17:44:31.851Z,11.98
2017-05-06T17:47:00.894Z,10.56
2017-05-06T17:49:29.845Z,12.72
2017-05-06T17:51:58.143Z,10.22
2017-05-06T17:54:26.822Z,11.98
2017-05-06T17:56:55.755Z,12.10
2017-05-06T17:59:24.801Z,9.90
2017-05-06T18:01:53.868Z,11.60
2017-05-06T18:04:22.847Z,11.00
2017-05-06T18:06:51.904Z,9.64
2017-05-06T18:09:20.790Z,11.10
2017-05-06T18:11:49.148Z,11.66
2017-05-06T18:14:17.450Z,11.14
2017-05-06T18:16:45.750Z,11.38
2017-05-06T18:19:13.729Z,8.58
2017-05-06T18:21:41.661Z,11.48
2017-05-06T18:24:09.966Z,10.92
2017-05-06T18:26:37.972Z,10.50
2017-05-06T18:29:06.289Z,9.50
2017-05-06T18:31:34.603Z,10.26
2017-05-06T18:34:03.228Z,11.66
2017-05-06T18:36:32.272Z,10.62
2017-05-06T18:39:00.591Z,12.70
2017-05-06T18:41:28.834Z,10.30
2017-05-06T18:43:56.762Z,10.98
2017-05-06T18:46:25.057Z,8.44
2017-05-06T18:48:53.807Z,10.62
2017-05-06T18:51:21.760Z,11.60
2017-05-06T18:53:50.812Z,10.30
2017-05-06T18:56:19.302Z,10.92
2017-05-06T18:58:48.190Z,10.20
2017-05-06T19:01:16.502Z,10.36
2017-05-06T19:03:45.608Z,11.06
2017-05-06T19:06:13.915Z,10.56
2017-05-06T19:08:41.843Z,9.54
2017-05-06T19:11:10.782Z,10.70
2017-05-06T19:13:39.098Z,11.50
2017-05-06T19:16:08.147Z,9.82
2017-05-06T19:18:37.572Z,10.22
2017-05-06T19:21:06.470Z,10.22
2017-05-06T19:23:34.791Z,11.40
2017-05-06T19:26:02.795Z,10.94
2017-05-06T19:28:31.098Z,10.80
2017-05-06T19:31:00.139Z,10.10
2017-05-06T19:33:28.858Z,9.38
2017-05-06T19:35:59.740Z,10.12
2017-05-06T19:38:28.067Z,10.36
2017-05-06T19:40:56.995Z,10.74
2017-05-06T19:43:25.295Z,10.06
2017-05-06T19:45:53.614Z,10.12
2017-05-06T19:48:22.325Z,9.88
2017-05-06T19:50:51.235Z,11.52
2017-05-06T19:53:19.539Z,11.66
2017-05-06T19:55:49.239Z,10.82
2017-05-06T19:58:17.917Z,13.20
2017-05-06T20:00:46.959Z,11.96
2017-05-06T20:03:15.904Z,12.04
2017-05-06T20:05:44.791Z,11.46
2017-05-06T20:08:12.718Z,11.98
2017-05-06T20:10:41.080Z,11.98
2017-05-06T20:13:09.389Z,10.70
2017-05-06T20:15:37.712Z,11.90
2017-05-06T20:18:06.091Z,11.32
2017-05-06T20:20:35.168Z,10.16
2017-05-06T20:23:03.999Z,10.92
2017-05-06T20:25:33.124Z,12.06
2017-05-06T20:28:01.433Z,11.44
2017-05-06T20:30:29.362Z,10.92
2017-05-06T20:32:57.715Z,11.78
2017-05-06T20:35:26.015Z,12.38
2017-05-06T20:37:54.903Z,13.78
2017-05-06T20:40:24.002Z,12.60
2017-05-06T20:42:51.949Z,14.48
2017-05-06T20:45:20.267Z,13.32
2017-05-06T20:47:48.615Z,13.68
2017-05-06T20:50:16.914Z,14.62
2017-05-06T20:52:44.846Z,12.94
2017-05-06T20:55:13.203Z,14.10
2017-05-06T20:57:41.505Z,14.44
2017-05-06T21:00:09.814Z,15.22
2017-05-06T21:02:38.655Z,15.58
2017-05-06T21:05:06.963Z,16.48
2017-05-06T21:07:35.290Z,16.06
2017-05-06T21:10:03.312Z,14.50
2017-05-06T21:12:31.243Z,16.80
2017-05-06T21:14:59.538Z,16.74
2017-05-06T21:17:27.519Z,16.32
2017-05-06T21:19:55.459Z,16.28
2017-05-06T21:22:23.783Z,17.82
2017-05-06T21:24:52.174Z,17.76
2017-05-06T21:27:20.854Z,18.90
2017-05-06T21:29:49.155Z,18.10
2017-05-06T21:32:17.506Z,17.72
2017-05-06T21:34:45.811Z,16.88
2017-05-06T21:37:14.702Z,19.22
2017-05-06T21:39:43.815Z,18.36
2017-05-06T21:42:11.746Z,20.08
2017-05-06T21:44:39.677Z,20.52
2017-05-06T21:47:09.208Z,20.94
2017-05-06T21:49:37.158Z,19.30
2017-05-06T21:52:05.120Z,18.76
2017-05-06T21:54:33.904Z,23.40
2017-05-06T21:57:02.251Z,21.54
2017-05-06T21:59:30.562Z,22.28
2017-05-06T22:01:59.503Z,21.30
2017-05-06T22:04:27.443Z,22.42
2017-05-06T22:06:55.742Z,24.26
2017-05-06T22:09:24.103Z,25.16
2017-05-06T22:11:52.422Z,23.56
2017-05-06T22:14:20.733Z,25.76
2017-05-06T22:16:49.011Z,25.62
2017-05-06T22:19:16.943Z,25.80
2017-05-06T22:21:45.255Z,23.52
2017-05-06T22:24:13.747Z,25.12
2017-05-06T22:26:42.755Z,24.94
2017-05-06T22:29:10.687Z,23.66
2017-05-06T22:31:39.120Z,24.64
2017-05-06T22:34:07.078Z,23.92
2017-05-06T22:36:35.398Z,23.42
2017-05-06T22:39:03.791Z,24.56
2017-05-06T22:41:32.686Z,23.76
2017-05-06T22:44:01.574Z,24.54
2017-05-06T22:46:29.553Z,24.58
2017-05-06T22:48:58.795Z,25.22
2017-05-06T22:51:27.106Z,23.52
2017-05-06T22:53:55.469Z,26.74
2017-05-06T22:56:24.354Z,23.42
2017-05-06T22:58:52.676Z,26.92
2017-05-06T23:01:21.394Z,26.20
2017-05-06T23:03:50.460Z,26.62
2017-05-06T23:06:18.399Z,25.98
2017-05-06T23:08:46.756Z,24.84
2017-05-06T23:11:15.063Z,26.92
2017-05-06T23:13:43.951Z,27.16
2017-05-06T23:16:12.295Z,26.84
2017-05-06T23:18:40.975Z,25.44
2017-05-06T23:21:08.920Z,27.40
2017-05-06T23:23:38.279Z,26.46
2017-05-06T23:26:06.231Z,26.92
2017-05-06T23:28:34.941Z,24.42
2017-05-06T23:31:03.636Z,26.60
2017-05-06T23:33:32.525Z,29.72
2017-05-06T23:36:00.928Z,26.80
2017-05-06T23:38:29.975Z,26.18
2017-05-06T23:40:58.278Z,25.94
2017-05-06T23:43:27.094Z,25.68
2017-05-06T23:45:55.034Z,27.04
2017-05-06T23:48:23.955Z,28.80
2017-05-06T23:50:52.569Z,25.40
2017-05-06T23:53:20.874Z,26.46
2017-05-06T23:55:49.563Z,29.34
2017-05-06T23:58:17.947Z,27.80
